sensor_id;sensor_type;location;lat;lon;timestamp;P1;durP1;ratioP1;P2;durP2;ratioP2
24407;SDS011;12542;50.924;4.516;2024-03-08T00:00:07;30.52;;;14.45;;
24407;SDS011;12542;50.924;4.516;2024-03-08T00:02:37;28.15;;;15.02;;
24407;SDS011;12542;50.924;4.516;2024-03-08T00:05:07;29.42;;;13.95;;
24407;SDS011;12542;50.924;4.516;2024-03-08T00:07:37;30.08;;;15.35;;
24407;SDS011;12542;50.924;4.516;2024-03-08T00:10:03;29.38;;;15.60;;
24407;SDS011;12542;50.924;4.516;2024-03-08T00:12:36;29.83;;;15.40;;
24407;SDS011;12542;50.924;4.516;2024-03-08T00:15:12;28.88;;;14.80;;
24407;SDS011;12542;50.924;4.516;2024-03-08T00:17:42;30.80;;;16.05;;
24407;SDS011;12542;50.924;4.516;2024-03-08T00:20:09;30.23;;;14.88;;
24407;SDS011;12542;50.924;4.516;2024-03-08T00:22:35;28.40;;;15.40;;
24407;SDS011;12542;50.924;4.516;2024-03-08T00:25:04;30.92;;;16.35;;
24407;SDS011;12542;50.924;4.516;2024-03-08T00:27:36;34.88;;;16.23;;
24407;SDS011;12542;50.924;4.516;2024-03-08T00:30:03;34.75;;;16.17;;
24407;SDS011;12542;50.924;4.516;2024-03-08T00:32:29;28.50;;;15.05;;
24407;SDS011;12542;50.924;4.516;2024-03-08T00:34:56;34.13;;;16.95;;
24407;SDS011;12542;50.924;4.516;2024-03-08T00:37:22;33.45;;;16.65;;
24407;SDS011;12542;50.924;4.516;2024-03-08T00:39:49;35.95;;;16.63;;
24407;SDS011;12542;50.924;4.516;2024-03-08T00:42:15;32.10;;;16.60;;
24407;SDS011;12542;50.924;4.516;2024-03-08T00:44:41;34.58;;;18.20;;
24407;SDS011;12542;50.924;4.516;2024-03-08T00:47:07;33.78;;;15.65;;
24407;SDS011;12542;50.924;4.516;2024-03-08T00:49:33;34.85;;;17.10;;
24407;SDS011;12542;50.924;4.516;2024-03-08T00:52:01;35.45;;;17.42;;
24407;SDS011;12542;50.924;4.516;2024-03-08T00:54:27;39.35;;;16.60;;
24407;SDS011;12542;50.924;4.516;2024-03-08T00:56:53;34.10;;;15.75;;
24407;SDS011;12542;50.924;4.516;2024-03-08T00:59:19;33.70;;;17.45;;
24407;SDS011;12542;50.924;4.516;2024-03-08T01:01:45;40.20;;;19.10;;
24407;SDS011;12542;50.924;4.516;2024-03-08T01:04:13;30.45;;;17.27;;
24407;SDS011;12542;50.924;4.516;2024-03-08T01:06:38;31.90;;;15.98;;
24407;SDS011;12542;50.924;4.516;2024-03-08T01:09:04;34.95;;;17.17;;
24407;SDS011;12542;50.924;4.516;2024-03-08T01:11:32;38.03;;;17.48;;
24407;SDS011;12542;50.924;4.516;2024-03-08T01:13:59;36.25;;;17.50;;
24407;SDS011;12542;50.924;4.516;2024-03-08T01:16:24;42.75;;;17.98;;
24407;SDS011;12542;50.924;4.516;2024-03-08T01:18:50;33.72;;;17.13;;
24407;SDS011;12542;50.924;4.516;2024-03-08T01:21:16;30.75;;;15.40;;
24407;SDS011;12542;50.924;4.516;2024-03-08T01:23:42;33.95;;;17.60;;
24407;SDS011;12542;50.924;4.516;2024-03-08T01:26:08;35.95;;;17.63;;
24407;SDS011;12542;50.924;4.516;2024-03-08T01:28:33;36.25;;;17.25;;
24407;SDS011;12542;50.924;4.516;2024-03-08T01:30:59;34.30;;;16.02;;
24407;SDS011;12542;50.924;4.516;2024-03-08T01:33:25;37.10;;;18.83;;
24407;SDS011;12542;50.924;4.516;2024-03-08T01:35:52;36.00;;;18.85;;
24407;SDS011;12542;50.924;4.516;2024-03-08T01:38:18;33.05;;;16.23;;
24407;SDS011;12542;50.924;4.516;2024-03-08T01:40:48;32.50;;;17.83;;
24407;SDS011;12542;50.924;4.516;2024-03-08T01:43:21;35.58;;;18.92;;
24407;SDS011;12542;50.924;4.516;2024-03-08T01:45:50;38.10;;;20.55;;
24407;SDS011;12542;50.924;4.516;2024-03-08T01:48:16;35.25;;;18.65;;
24407;SDS011;12542;50.924;4.516;2024-03-08T01:50:42;37.58;;;17.80;;
24407;SDS011;12542;50.924;4.516;2024-03-08T01:53:09;38.28;;;18.27;;
24407;SDS011;12542;50.924;4.516;2024-03-08T01:55:37;34.90;;;17.83;;
24407;SDS011;12542;50.924;4.516;2024-03-08T01:58:08;37.03;;;19.63;;
24407;SDS011;12542;50.924;4.516;2024-03-08T02:00:36;37.85;;;19.30;;
24407;SDS011;12542;50.924;4.516;2024-03-08T02:03:05;31.63;;;17.40;;
24407;SDS011;12542;50.924;4.516;2024-03-08T02:05:31;33.80;;;16.80;;
24407;SDS011;12542;50.924;4.516;2024-03-08T02:07:57;38.33;;;20.25;;
24407;SDS011;12542;50.924;4.516;2024-03-08T02:10:23;34.67;;;18.35;;
24407;SDS011;12542;50.924;4.516;2024-03-08T02:12:49;34.55;;;19.58;;
24407;SDS011;12542;50.924;4.516;2024-03-08T02:15:16;35.08;;;19.08;;
24407;SDS011;12542;50.924;4.516;2024-03-08T02:17:41;36.15;;;18.23;;
24407;SDS011;12542;50.924;4.516;2024-03-08T02:20:10;34.05;;;18.30;;
24407;SDS011;12542;50.924;4.516;2024-03-08T02:22:38;36.45;;;19.02;;
24407;SDS011;12542;50.924;4.516;2024-03-08T02:25:04;38.45;;;19.30;;
24407;SDS011;12542;50.924;4.516;2024-03-08T02:27:30;34.63;;;19.15;;
24407;SDS011;12542;50.924;4.516;2024-03-08T02:29:57;36.08;;;19.85;;
24407;SDS011;12542;50.924;4.516;2024-03-08T02:32:25;35.25;;;19.35;;
24407;SDS011;12542;50.924;4.516;2024-03-08T02:34:51;33.55;;;18.73;;
24407;SDS011;12542;50.924;4.516;2024-03-08T02:37:21;34.03;;;20.75;;
24407;SDS011;12542;50.924;4.516;2024-03-08T02:39:47;33.83;;;20.45;;
24407;SDS011;12542;50.924;4.516;2024-03-08T02:42:13;37.80;;;19.90;;
24407;SDS011;12542;50.924;4.516;2024-03-08T02:44:42;35.58;;;19.17;;
24407;SDS011;12542;50.924;4.516;2024-03-08T02:47:09;35.20;;;19.77;;
24407;SDS011;12542;50.924;4.516;2024-03-08T02:49:35;34.95;;;19.67;;
24407;SDS011;12542;50.924;4.516;2024-03-08T02:52:02;37.83;;;19.88;;
24407;SDS011;12542;50.924;4.516;2024-03-08T02:54:29;32.72;;;17.40;;
24407;SDS011;12542;50.924;4.516;2024-03-08T02:56:55;33.65;;;20.00;;
24407;SDS011;12542;50.924;4.516;2024-03-08T02:59:21;35.42;;;20.33;;
24407;SDS011;12542;50.924;4.516;2024-03-08T03:01:48;35.38;;;18.85;;
24407;SDS011;12542;50.924;4.516;2024-03-08T03:04:14;40.17;;;20.25;;
24407;SDS011;12542;50.924;4.516;2024-03-08T03:06:40;34.30;;;19.38;;
24407;SDS011;12542;50.924;4.516;2024-03-08T03:09:06;35.42;;;20.60;;
24407;SDS011;12542;50.924;4.516;2024-03-08T03:11:32;39.40;;;19.42;;
24407;SDS011;12542;50.924;4.516;2024-03-08T03:13:57;34.80;;;21.13;;
24407;SDS011;12542;50.924;4.516;2024-03-08T03:16:23;38.65;;;21.35;;
24407;SDS011;12542;50.924;4.516;2024-03-08T03:18:49;34.08;;;18.27;;
24407;SDS011;12542;50.924;4.516;2024-03-08T03:21:15;36.70;;;21.20;;
24407;SDS011;12542;50.924;4.516;2024-03-08T03:23:42;38.80;;;21.20;;
24407;SDS011;12542;50.924;4.516;2024-03-08T03:26:10;36.53;;;21.30;;
24407;SDS011;12542;50.924;4.516;2024-03-08T03:28:37;32.80;;;19.55;;
24407;SDS011;12542;50.924;4.516;2024-03-08T03:31:06;35.63;;;20.65;;
24407;SDS011;12542;50.924;4.516;2024-03-08T03:33:32;42.58;;;21.27;;
24407;SDS011;12542;50.924;4.516;2024-03-08T03:35:59;35.60;;;19.10;;
24407;SDS011;12542;50.924;4.516;2024-03-08T03:38:26;41.30;;;21.05;;
24407;SDS011;12542;50.924;4.516;2024-03-08T03:40:53;36.88;;;21.45;;
24407;SDS011;12542;50.924;4.516;2024-03-08T03:43:22;36.92;;;20.92;;
24407;SDS011;12542;50.924;4.516;2024-03-08T03:45:48;35.20;;;21.13;;
24407;SDS011;12542;50.924;4.516;2024-03-08T03:48:14;34.08;;;20.70;;
24407;SDS011;12542;50.924;4.516;2024-03-08T03:50:40;36.75;;;21.95;;
24407;SDS011;12542;50.924;4.516;2024-03-08T03:53:09;38.13;;;22.10;;
24407;SDS011;12542;50.924;4.516;2024-03-08T03:55:35;40.47;;;20.35;;
24407;SDS011;12542;50.924;4.516;2024-03-08T03:58:01;35.15;;;21.20;;
24407;SDS011;12542;50.924;4.516;2024-03-08T04:00:28;40.15;;;21.92;;
24407;SDS011;12542;50.924;4.516;2024-03-08T04:02:53;42.20;;;22.77;;
24407;SDS011;12542;50.924;4.516;2024-03-08T04:05:21;37.25;;;21.90;;
24407;SDS011;12542;50.924;4.516;2024-03-08T04:07:46;37.47;;;20.70;;
24407;SDS011;12542;50.924;4.516;2024-03-08T04:10:12;38.58;;;22.15;;
24407;SDS011;12542;50.924;4.516;2024-03-08T04:12:39;38.72;;;21.98;;
24407;SDS011;12542;50.924;4.516;2024-03-08T04:15:05;38.00;;;21.67;;
24407;SDS011;12542;50.924;4.516;2024-03-08T04:17:35;39.10;;;22.13;;
24407;SDS011;12542;50.924;4.516;2024-03-08T04:20:02;37.35;;;21.83;;
24407;SDS011;12542;50.924;4.516;2024-03-08T04:22:35;36.88;;;22.73;;
24407;SDS011;12542;50.924;4.516;2024-03-08T04:25:06;37.88;;;18.90;;
24407;SDS011;12542;50.924;4.516;2024-03-08T04:27:33;37.10;;;21.88;;
24407;SDS011;12542;50.924;4.516;2024-03-08T04:29:59;38.55;;;22.30;;
24407;SDS011;12542;50.924;4.516;2024-03-08T04:32:25;37.85;;;21.08;;
24407;SDS011;12542;50.924;4.516;2024-03-08T04:34:51;33.55;;;19.17;;
24407;SDS011;12542;50.924;4.516;2024-03-08T04:37:16;37.70;;;21.15;;
24407;SDS011;12542;50.924;4.516;2024-03-08T04:39:47;36.83;;;21.67;;
24407;SDS011;12542;50.924;4.516;2024-03-08T04:42:13;37.72;;;22.80;;
24407;SDS011;12542;50.924;4.516;2024-03-08T04:44:39;37.00;;;21.52;;
24407;SDS011;12542;50.924;4.516;2024-03-08T04:47:08;40.65;;;22.02;;
24407;SDS011;12542;50.924;4.516;2024-03-08T04:49:33;36.63;;;20.80;;
24407;SDS011;12542;50.924;4.516;2024-03-08T04:52:00;38.80;;;20.55;;
24407;SDS011;12542;50.924;4.516;2024-03-08T04:54:32;41.95;;;21.90;;
24407;SDS011;12542;50.924;4.516;2024-03-08T04:56:57;36.72;;;20.48;;
24407;SDS011;12542;50.924;4.516;2024-03-08T04:59:25;39.35;;;22.38;;
24407;SDS011;12542;50.924;4.516;2024-03-08T05:01:52;38.78;;;21.45;;
24407;SDS011;12542;50.924;4.516;2024-03-08T05:04:20;39.45;;;22.38;;
24407;SDS011;12542;50.924;4.516;2024-03-08T05:06:46;39.03;;;18.88;;
24407;SDS011;12542;50.924;4.516;2024-03-08T05:09:11;41.40;;;21.30;;
24407;SDS011;12542;50.924;4.516;2024-03-08T05:11:41;42.25;;;21.52;;
24407;SDS011;12542;50.924;4.516;2024-03-08T05:14:08;37.70;;;21.92;;
24407;SDS011;12542;50.924;4.516;2024-03-08T05:16:34;38.08;;;22.05;;
24407;SDS011;12542;50.924;4.516;2024-03-08T05:18:59;35.75;;;20.90;;
24407;SDS011;12542;50.924;4.516;2024-03-08T05:21:25;39.00;;;21.17;;
24407;SDS011;12542;50.924;4.516;2024-03-08T05:23:51;36.65;;;20.58;;
24407;SDS011;12542;50.924;4.516;2024-03-08T05:26:16;38.22;;;21.30;;
24407;SDS011;12542;50.924;4.516;2024-03-08T05:28:42;37.03;;;19.67;;
24407;SDS011;12542;50.924;4.516;2024-03-08T05:31:08;41.85;;;20.77;;
24407;SDS011;12542;50.924;4.516;2024-03-08T05:33:34;38.97;;;22.55;;
24407;SDS011;12542;50.924;4.516;2024-03-08T05:36:00;39.30;;;21.15;;
24407;SDS011;12542;50.924;4.516;2024-03-08T05:38:27;35.03;;;19.90;;
24407;SDS011;12542;50.924;4.516;2024-03-08T05:40:53;37.95;;;21.70;;
24407;SDS011;12542;50.924;4.516;2024-03-08T05:43:19;36.13;;;20.70;;
24407;SDS011;12542;50.924;4.516;2024-03-08T05:45:45;37.38;;;20.88;;
24407;SDS011;12542;50.924;4.516;2024-03-08T05:48:11;40.05;;;20.77;;
24407;SDS011;12542;50.924;4.516;2024-03-08T05:50:38;46.38;;;21.85;;
24407;SDS011;12542;50.924;4.516;2024-03-08T05:53:04;41.92;;;22.38;;
24407;SDS011;12542;50.924;4.516;2024-03-08T05:55:32;41.42;;;21.38;;
24407;SDS011;12542;50.924;4.516;2024-03-08T05:58:01;40.25;;;22.10;;
24407;SDS011;12542;50.924;4.516;2024-03-08T06:00:27;38.92;;;20.90;;
24407;SDS011;12542;50.924;4.516;2024-03-08T06:02:53;40.60;;;22.00;;
24407;SDS011;12542;50.924;4.516;2024-03-08T06:05:19;39.95;;;21.10;;
24407;SDS011;12542;50.924;4.516;2024-03-08T06:07:44;43.75;;;22.33;;
24407;SDS011;12542;50.924;4.516;2024-03-08T06:10:12;42.85;;;21.95;;
24407;SDS011;12542;50.924;4.516;2024-03-08T06:12:39;40.00;;;20.67;;
24407;SDS011;12542;50.924;4.516;2024-03-08T06:15:09;35.70;;;21.45;;
24407;SDS011;12542;50.924;4.516;2024-03-08T06:17:35;37.63;;;20.23;;
24407;SDS011;12542;50.924;4.516;2024-03-08T06:20:02;36.72;;;21.95;;
24407;SDS011;12542;50.924;4.516;2024-03-08T06:22:29;40.22;;;21.25;;
24407;SDS011;12542;50.924;4.516;2024-03-08T06:24:55;39.05;;;21.33;;
24407;SDS011;12542;50.924;4.516;2024-03-08T06:27:21;41.72;;;23.40;;
24407;SDS011;12542;50.924;4.516;2024-03-08T06:29:47;34.15;;;19.75;;
24407;SDS011;12542;50.924;4.516;2024-03-08T06:32:14;39.97;;;21.50;;
24407;SDS011;12542;50.924;4.516;2024-03-08T06:34:40;41.63;;;22.35;;
24407;SDS011;12542;50.924;4.516;2024-03-08T06:37:06;43.47;;;21.20;;
24407;SDS011;12542;50.924;4.516;2024-03-08T06:39:32;41.72;;;21.35;;
24407;SDS011;12542;50.924;4.516;2024-03-08T06:41:59;40.58;;;20.85;;
24407;SDS011;12542;50.924;4.516;2024-03-08T06:44:25;40.78;;;21.65;;
24407;SDS011;12542;50.924;4.516;2024-03-08T06:46:51;39.88;;;21.42;;
24407;SDS011;12542;50.924;4.516;2024-03-08T06:49:16;40.22;;;20.48;;
24407;SDS011;12542;50.924;4.516;2024-03-08T06:51:42;41.22;;;20.08;;
24407;SDS011;12542;50.924;4.516;2024-03-08T06:54:08;39.30;;;20.38;;
24407;SDS011;12542;50.924;4.516;2024-03-08T06:56:34;37.60;;;20.67;;
24407;SDS011;12542;50.924;4.516;2024-03-08T06:59:00;36.78;;;19.33;;
24407;SDS011;12542;50.924;4.516;2024-03-08T07:01:28;35.03;;;20.40;;
24407;SDS011;12542;50.924;4.516;2024-03-08T07:03:57;32.70;;;18.10;;
24407;SDS011;12542;50.924;4.516;2024-03-08T07:06:23;39.45;;;21.73;;
24407;SDS011;12542;50.924;4.516;2024-03-08T07:08:48;33.58;;;19.38;;
24407;SDS011;12542;50.924;4.516;2024-03-08T07:11:14;32.70;;;18.23;;
24407;SDS011;12542;50.924;4.516;2024-03-08T07:13:46;40.13;;;21.58;;
24407;SDS011;12542;50.924;4.516;2024-03-08T07:16:12;31.40;;;17.85;;
24407;SDS011;12542;50.924;4.516;2024-03-08T07:18:37;32.38;;;18.77;;
24407;SDS011;12542;50.924;4.516;2024-03-08T07:21:08;34.50;;;17.85;;
24407;SDS011;12542;50.924;4.516;2024-03-08T07:23:35;32.10;;;18.45;;
24407;SDS011;12542;50.924;4.516;2024-03-08T07:26:34;32.92;;;18.00;;
24407;SDS011;12542;50.924;4.516;2024-03-08T07:29:00;37.30;;;18.08;;
24407;SDS011;12542;50.924;4.516;2024-03-08T07:31:26;33.20;;;19.63;;
24407;SDS011;12542;50.924;4.516;2024-03-08T07:33:52;34.63;;;18.85;;
24407;SDS011;12542;50.924;4.516;2024-03-08T07:36:20;31.73;;;18.20;;
24407;SDS011;12542;50.924;4.516;2024-03-08T07:38:47;32.25;;;18.60;;
24407;SDS011;12542;50.924;4.516;2024-03-08T07:41:13;36.63;;;18.10;;
24407;SDS011;12542;50.924;4.516;2024-03-08T07:43:40;39.47;;;17.88;;
24407;SDS011;12542;50.924;4.516;2024-03-08T07:46:05;35.50;;;19.00;;
24407;SDS011;12542;50.924;4.516;2024-03-08T07:48:31;32.25;;;18.88;;
24407;SDS011;12542;50.924;4.516;2024-03-08T07:50:57;31.08;;;17.88;;
24407;SDS011;12542;50.924;4.516;2024-03-08T07:53:25;32.80;;;17.65;;
24407;SDS011;12542;50.924;4.516;2024-03-08T07:55:51;36.75;;;19.02;;
24407;SDS011;12542;50.924;4.516;2024-03-08T07:58:17;32.22;;;16.40;;
24407;SDS011;12542;50.924;4.516;2024-03-08T08:00:43;32.83;;;18.73;;
24407;SDS011;12542;50.924;4.516;2024-03-08T08:03:09;27.95;;;16.38;;
24407;SDS011;12542;50.924;4.516;2024-03-08T08:05:35;31.55;;;17.27;;
24407;SDS011;12542;50.924;4.516;2024-03-08T08:08:02;31.25;;;17.33;;
24407;SDS011;12542;50.924;4.516;2024-03-08T08:10:31;29.13;;;15.43;;
24407;SDS011;12542;50.924;4.516;2024-03-08T08:12:58;28.15;;;18.08;;
24407;SDS011;12542;50.924;4.516;2024-03-08T08:15:24;35.97;;;18.75;;
24407;SDS011;12542;50.924;4.516;2024-03-08T08:17:50;34.17;;;19.33;;
24407;SDS011;12542;50.924;4.516;2024-03-08T08:20:17;30.58;;;17.40;;
24407;SDS011;12542;50.924;4.516;2024-03-08T08:22:43;29.27;;;16.52;;
24407;SDS011;12542;50.924;4.516;2024-03-08T08:25:09;32.17;;;18.05;;
24407;SDS011;12542;50.924;4.516;2024-03-08T08:27:38;22.83;;;11.40;;
24407;SDS011;12542;50.924;4.516;2024-03-08T08:30:10;35.40;;;18.35;;
24407;SDS011;12542;50.924;4.516;2024-03-08T08:32:36;35.75;;;17.00;;
24407;SDS011;12542;50.924;4.516;2024-03-08T08:35:07;30.50;;;16.58;;
24407;SDS011;12542;50.924;4.516;2024-03-08T08:37:40;27.85;;;17.10;;
24407;SDS011;12542;50.924;4.516;2024-03-08T08:40:06;28.75;;;15.82;;
24407;SDS011;12542;50.924;4.516;2024-03-08T08:42:39;31.60;;;16.88;;
24407;SDS011;12542;50.924;4.516;2024-03-08T08:45:06;32.35;;;16.33;;
24407;SDS011;12542;50.924;4.516;2024-03-08T08:47:34;25.90;;;14.88;;
24407;SDS011;12542;50.924;4.516;2024-03-08T08:50:00;27.45;;;16.10;;
24407;SDS011;12542;50.924;4.516;2024-03-08T08:52:26;30.08;;;15.65;;
24407;SDS011;12542;50.924;4.516;2024-03-08T08:54:54;32.55;;;18.27;;
24407;SDS011;12542;50.924;4.516;2024-03-08T08:57:20;28.02;;;16.42;;
24407;SDS011;12542;50.924;4.516;2024-03-08T08:59:45;29.50;;;16.38;;
24407;SDS011;12542;50.924;4.516;2024-03-08T09:02:11;29.05;;;16.00;;
24407;SDS011;12542;50.924;4.516;2024-03-08T09:04:38;29.55;;;16.83;;
24407;SDS011;12542;50.924;4.516;2024-03-08T09:07:03;28.60;;;15.98;;
24407;SDS011;12542;50.924;4.516;2024-03-08T09:09:31;28.83;;;16.42;;
24407;SDS011;12542;50.924;4.516;2024-03-08T09:11:57;28.20;;;14.45;;
24407;SDS011;12542;50.924;4.516;2024-03-08T09:14:23;20.90;;;12.63;;
24407;SDS011;12542;50.924;4.516;2024-03-08T09:16:51;30.58;;;16.23;;
24407;SDS011;12542;50.924;4.516;2024-03-08T09:19:16;29.95;;;15.40;;
24407;SDS011;12542;50.924;4.516;2024-03-08T09:21:45;30.70;;;16.23;;
24407;SDS011;12542;50.924;4.516;2024-03-08T09:24:10;21.52;;;12.00;;
24407;SDS011;12542;50.924;4.516;2024-03-08T09:26:37;25.80;;;14.40;;
24407;SDS011;12542;50.924;4.516;2024-03-08T09:29:03;26.67;;;14.68;;
24407;SDS011;12542;50.924;4.516;2024-03-08T09:31:31;28.17;;;15.23;;
24407;SDS011;12542;50.924;4.516;2024-03-08T09:33:57;28.35;;;14.32;;
24407;SDS011;12542;50.924;4.516;2024-03-08T09:36:23;27.60;;;15.13;;
24407;SDS011;12542;50.924;4.516;2024-03-08T09:38:50;25.85;;;15.50;;
24407;SDS011;12542;50.924;4.516;2024-03-08T09:41:16;26.48;;;14.43;;
24407;SDS011;12542;50.924;4.516;2024-03-08T09:43:42;28.75;;;15.07;;
24407;SDS011;12542;50.924;4.516;2024-03-08T09:46:09;24.60;;;13.80;;
24407;SDS011;12542;50.924;4.516;2024-03-08T09:48:36;25.00;;;15.52;;
24407;SDS011;12542;50.924;4.516;2024-03-08T09:51:03;23.90;;;15.20;;
24407;SDS011;12542;50.924;4.516;2024-03-08T09:53:30;22.30;;;12.82;;
24407;SDS011;12542;50.924;4.516;2024-03-08T09:55:56;22.95;;;13.82;;
24407;SDS011;12542;50.924;4.516;2024-03-08T09:58:22;24.70;;;15.18;;
24407;SDS011;12542;50.924;4.516;2024-03-08T10:01:01;25.33;;;14.98;;
24407;SDS011;12542;50.924;4.516;2024-03-08T10:03:29;23.92;;;13.52;;
24407;SDS011;12542;50.924;4.516;2024-03-08T10:05:57;21.77;;;12.38;;
24407;SDS011;12542;50.924;4.516;2024-03-08T10:08:26;24.92;;;13.07;;
24407;SDS011;12542;50.924;4.516;2024-03-08T10:10:56;25.08;;;12.70;;
24407;SDS011;12542;50.924;4.516;2024-03-08T10:13:25;23.00;;;13.02;;
24407;SDS011;12542;50.924;4.516;2024-03-08T10:15:54;22.90;;;13.60;;
24407;SDS011;12542;50.924;4.516;2024-03-08T10:18:20;23.17;;;14.23;;
24407;SDS011;12542;50.924;4.516;2024-03-08T10:21:01;22.83;;;14.20;;
24407;SDS011;12542;50.924;4.516;2024-03-08T10:23:29;23.25;;;13.55;;
24407;SDS011;12542;50.924;4.516;2024-03-08T10:25:55;22.38;;;12.57;;
24407;SDS011;12542;50.924;4.516;2024-03-08T10:28:23;21.65;;;12.38;;
24407;SDS011;12542;50.924;4.516;2024-03-08T10:30:50;24.02;;;13.65;;
24407;SDS011;12542;50.924;4.516;2024-03-08T10:33:15;23.77;;;13.35;;
24407;SDS011;12542;50.924;4.516;2024-03-08T10:35:41;18.50;;;11.63;;
24407;SDS011;12542;50.924;4.516;2024-03-08T10:38:07;23.13;;;12.48;;
24407;SDS011;12542;50.924;4.516;2024-03-08T10:40:38;20.50;;;12.93;;
24407;SDS011;12542;50.924;4.516;2024-03-08T10:43:05;22.38;;;12.98;;
24407;SDS011;12542;50.924;4.516;2024-03-08T10:45:39;22.30;;;14.23;;
24407;SDS011;12542;50.924;4.516;2024-03-08T10:50:47;22.15;;;12.60;;
24407;SDS011;12542;50.924;4.516;2024-03-08T10:53:15;21.17;;;11.93;;
24407;SDS011;12542;50.924;4.516;2024-03-08T10:55:43;22.27;;;13.52;;
24407;SDS011;12542;50.924;4.516;2024-03-08T10:58:11;19.45;;;10.98;;
24407;SDS011;12542;50.924;4.516;2024-03-08T11:00:37;21.88;;;12.75;;
24407;SDS011;12542;50.924;4.516;2024-03-08T11:03:03;29.50;;;14.20;;
24407;SDS011;12542;50.924;4.516;2024-03-08T11:05:39;22.05;;;13.30;;
24407;SDS011;12542;50.924;4.516;2024-03-08T11:10:50;22.35;;;13.20;;
24407;SDS011;12542;50.924;4.516;2024-03-08T11:13:37;21.42;;;13.13;;
24407;SDS011;12542;50.924;4.516;2024-03-08T11:16:11;21.80;;;13.38;;
24407;SDS011;12542;50.924;4.516;2024-03-08T11:18:58;27.73;;;13.60;;
24407;SDS011;12542;50.924;4.516;2024-03-08T11:21:30;22.33;;;13.77;;
24407;SDS011;12542;50.924;4.516;2024-03-08T11:24:02;24.35;;;12.95;;
24407;SDS011;12542;50.924;4.516;2024-03-08T11:26:32;22.90;;;12.23;;
24407;SDS011;12542;50.924;4.516;2024-03-08T11:29:46;22.75;;;12.73;;
24407;SDS011;12542;50.924;4.516;2024-03-08T11:32:03;20.80;;;12.82;;
24407;SDS011;12542;50.924;4.516;2024-03-08T11:34:35;22.70;;;11.50;;
24407;SDS011;12542;50.924;4.516;2024-03-08T11:37:05;20.10;;;11.35;;
24407;SDS011;12542;50.924;4.516;2024-03-08T11:39:59;23.70;;;14.10;;
24407;SDS011;12542;50.924;4.516;2024-03-08T11:42:24;23.20;;;13.73;;
24407;SDS011;12542;50.924;4.516;2024-03-08T11:44:56;20.85;;;12.63;;
24407;SDS011;12542;50.924;4.516;2024-03-08T11:47:23;25.17;;;14.32;;
24407;SDS011;12542;50.924;4.516;2024-03-08T11:49:51;22.40;;;13.73;;
24407;SDS011;12542;50.924;4.516;2024-03-08T11:52:18;21.65;;;12.55;;
24407;SDS011;12542;50.924;4.516;2024-03-08T11:54:54;21.83;;;12.10;;
24407;SDS011;12542;50.924;4.516;2024-03-08T11:57:25;22.20;;;13.55;;
24407;SDS011;12542;50.924;4.516;2024-03-08T11:59:51;24.80;;;13.75;;
24407;SDS011;12542;50.924;4.516;2024-03-08T12:02:22;21.58;;;12.57;;
24407;SDS011;12542;50.924;4.516;2024-03-08T12:04:55;22.30;;;13.82;;
24407;SDS011;12542;50.924;4.516;2024-03-08T12:12:43;20.60;;;12.52;;
24407;SDS011;12542;50.924;4.516;2024-03-08T12:15:17;19.67;;;12.45;;
24407;SDS011;12542;50.924;4.516;2024-03-08T12:17:45;21.13;;;13.05;;
24407;SDS011;12542;50.924;4.516;2024-03-08T12:20:18;20.88;;;12.82;;
24407;SDS011;12542;50.924;4.516;2024-03-08T12:22:49;23.33;;;12.82;;
24407;SDS011;12542;50.924;4.516;2024-03-08T12:25:19;20.83;;;12.95;;
24407;SDS011;12542;50.924;4.516;2024-03-08T12:27:45;24.40;;;13.90;;
24407;SDS011;12542;50.924;4.516;2024-03-08T12:35:22;21.48;;;12.80;;
24407;SDS011;12542;50.924;4.516;2024-03-08T12:37:51;26.67;;;13.20;;
24407;SDS011;12542;50.924;4.516;2024-03-08T12:40:18;21.35;;;11.55;;
24407;SDS011;12542;50.924;4.516;2024-03-08T12:42:50;24.20;;;13.32;;
24407;SDS011;12542;50.924;4.516;2024-03-08T12:45:16;20.65;;;12.95;;
24407;SDS011;12542;50.924;4.516;2024-03-08T12:47:42;21.05;;;13.25;;
24407;SDS011;12542;50.924;4.516;2024-03-08T12:50:09;19.10;;;12.30;;
24407;SDS011;12542;50.924;4.516;2024-03-08T12:52:35;19.23;;;11.50;;
24407;SDS011;12542;50.924;4.516;2024-03-08T12:55:01;18.52;;;9.82;;
24407;SDS011;12542;50.924;4.516;2024-03-08T12:57:30;21.80;;;12.73;;
24407;SDS011;12542;50.924;4.516;2024-03-08T12:59:56;22.52;;;12.07;;
24407;SDS011;12542;50.924;4.516;2024-03-08T13:02:21;19.70;;;12.18;;
24407;SDS011;12542;50.924;4.516;2024-03-08T13:04:49;19.85;;;11.48;;
24407;SDS011;12542;50.924;4.516;2024-03-08T13:09:49;24.77;;;13.90;;
24407;SDS011;12542;50.924;4.516;2024-03-08T13:12:15;20.77;;;12.68;;
24407;SDS011;12542;50.924;4.516;2024-03-08T13:14:43;21.05;;;12.73;;
24407;SDS011;12542;50.924;4.516;2024-03-08T13:17:08;21.33;;;13.00;;
24407;SDS011;12542;50.924;4.516;2024-03-08T13:19:36;21.13;;;12.77;;
24407;SDS011;12542;50.924;4.516;2024-03-08T13:22:03;23.02;;;12.85;;
24407;SDS011;12542;50.924;4.516;2024-03-08T13:24:30;25.10;;;12.80;;
24407;SDS011;12542;50.924;4.516;2024-03-08T13:26:58;19.60;;;12.02;;
24407;SDS011;12542;50.924;4.516;2024-03-08T13:29:25;19.00;;;11.00;;
24407;SDS011;12542;50.924;4.516;2024-03-08T13:31:51;20.98;;;12.32;;
24407;SDS011;12542;50.924;4.516;2024-03-08T13:34:18;21.52;;;10.95;;
24407;SDS011;12542;50.924;4.516;2024-03-08T13:36:44;24.13;;;11.73;;
24407;SDS011;12542;50.924;4.516;2024-03-08T13:39:11;20.27;;;11.90;;
24407;SDS011;12542;50.924;4.516;2024-03-08T13:41:45;25.17;;;13.85;;
24407;SDS011;12542;50.924;4.516;2024-03-08T13:44:11;22.35;;;11.57;;
24407;SDS011;12542;50.924;4.516;2024-03-08T13:46:37;22.35;;;11.93;;
24407;SDS011;12542;50.924;4.516;2024-03-08T13:49:04;19.52;;;11.93;;
24407;SDS011;12542;50.924;4.516;2024-03-08T13:51:32;21.35;;;12.43;;
24407;SDS011;12542;50.924;4.516;2024-03-08T13:53:59;20.23;;;11.55;;
24407;SDS011;12542;50.924;4.516;2024-03-08T13:56:26;21.45;;;12.77;;
24407;SDS011;12542;50.924;4.516;2024-03-08T13:58:57;18.95;;;12.13;;
24407;SDS011;12542;50.924;4.516;2024-03-08T14:01:27;21.38;;;12.38;;
24407;SDS011;12542;50.924;4.516;2024-03-08T14:03:52;18.60;;;12.23;;
24407;SDS011;12542;50.924;4.516;2024-03-08T14:06:18;19.75;;;12.68;;
24407;SDS011;12542;50.924;4.516;2024-03-08T14:08:44;18.55;;;12.05;;
24407;SDS011;12542;50.924;4.516;2024-03-08T14:11:09;22.70;;;12.43;;
24407;SDS011;12542;50.924;4.516;2024-03-08T14:13:44;18.88;;;11.45;;
24407;SDS011;12542;50.924;4.516;2024-03-08T14:16:13;19.08;;;12.10;;
24407;SDS011;12542;50.924;4.516;2024-03-08T14:18:40;18.60;;;10.32;;
24407;SDS011;12542;50.924;4.516;2024-03-08T14:21:07;19.52;;;12.38;;
24407;SDS011;12542;50.924;4.516;2024-03-08T14:23:36;18.42;;;11.38;;
24407;SDS011;12542;50.924;4.516;2024-03-08T14:26:04;22.50;;;12.68;;
24407;SDS011;12542;50.924;4.516;2024-03-08T14:28:32;20.17;;;13.02;;
24407;SDS011;12542;50.924;4.516;2024-03-08T14:30:57;21.05;;;12.70;;
24407;SDS011;12542;50.924;4.516;2024-03-08T14:33:23;20.65;;;11.60;;
24407;SDS011;12542;50.924;4.516;2024-03-08T14:35:50;19.27;;;11.55;;
24407;SDS011;12542;50.924;4.516;2024-03-08T14:38:16;17.38;;;10.30;;
24407;SDS011;12542;50.924;4.516;2024-03-08T14:40:42;19.38;;;10.52;;